Terminal Aerodrome Forecast
Issued by NWS Cleveland, OH

Home | Current Version | Previous Version | Text Only | Print | Product List | Glossary On
Versions: 1 2 3 4 5 6 7 8 9 10 11 12 13 14 15 16
000
FTUS41 KCLE 310800 AAA
TAFCAK
TAF AMD
KCAK 310803Z 3108/0106 23008KT 6SM -SHRA SCT040 OVC060
      TEMPO 3108/3110 3SM SHRA
     FM311100 22010KT P6SM SCT012 OVC030
     FM311300 22010KT P6SM VCSH SCT008 OVC012
      TEMPO 3113/3117 OVC008
     FM312200 23010KT P6SM OVC020=

USA.gov is the U.S. government's official web portal to all federal, state and local government web resources and services.